Time;durP1;ratioP1;P1;durP2;ratioP2;P2;SDS_P1;SDS_P2;PMS_P1;PMS_P2;Temp;Humidity;BMP_temperature;BMP_pressure;BME280_temperature;BME280_humidity;BME280_pressure;Samples;Min_cycle;Max_cycle;Signal;HPM_P1;HPM_P2
2020/12/28 00:01:16;;;;;;;6.97;2.17;;;7.80;99.90;;;;;;4911184;29;20229;-91
2020/12/28 00:03:48;;;;;;;4.73;2.67;;;7.80;99.90;;;;;;4908947;29;20649;-90
2020/12/28 00:06:18;;;;;;;2.80;2.27;;;7.70;99.90;;;;;;4909365;29;20304;-93
2020/12/28 00:08:49;;;;;;;3.60;2.07;;;7.70;99.90;;;;;;4907488;29;20213;-91
2020/12/28 00:11:20;;;;;;;2.93;2.37;;;7.60;99.90;;;;;;4912506;29;20220;-91
2020/12/28 00:13:51;;;;;;;2.13;1.80;;;7.60;99.90;;;;;;4942400;29;20231;-91
2020/12/28 00:16:21;;;;;;;4.70;2.50;;;7.50;99.90;;;;;;4950951;29;20219;-92
2020/12/28 00:18:54;;;;;;;3.37;2.30;;;7.40;99.90;;;;;;4947534;29;20235;-91
2020/12/28 00:21:23;;;;;;;2.97;2.23;;;7.30;99.90;;;;;;4940560;29;20219;-89
2020/12/28 00:23:55;;;;;;;4.67;2.23;;;7.20;99.90;;;;;;4927411;29;20209;-90
2020/12/28 00:26:26;;;;;;;4.63;2.60;;;7.20;99.90;;;;;;4927813;29;20218;-91
2020/12/28 00:28:57;;;;;;;3.87;2.60;;;7.00;99.90;;;;;;4926907;29;20208;-90
2020/12/28 00:31:28;;;;;;;3.77;2.30;;;7.00;99.90;;;;;;4926938;29;20370;-90
2020/12/28 00:34:01;;;;;;;3.40;2.37;;;6.90;99.90;;;;;;4927656;29;20236;-90
2020/12/28 00:36:32;;;;;;;4.23;2.90;;;6.90;99.90;;;;;;4939297;29;20266;-90
2020/12/28 00:39:02;;;;;;;4.90;2.43;;;6.80;99.90;;;;;;4944729;29;20264;-90
2020/12/28 00:41:33;;;;;;;4.07;2.57;;;6.70;99.90;;;;;;4930088;29;20215;-89
2020/12/28 00:44:03;;;;;;;4.77;2.73;;;6.70;99.90;;;;;;4930735;29;20212;-91
2020/12/28 00:46:33;;;;;;;5.80;3.70;;;6.60;99.90;;;;;;4930677;29;20233;-90
2020/12/28 00:49:03;;;;;;;4.23;3.00;;;6.50;99.90;;;;;;4932250;29;20255;-91
2020/12/28 00:51:33;;;;;;;5.33;3.10;;;6.40;99.90;;;;;;4947375;29;20220;-91
2020/12/28 00:54:04;;;;;;;5.60;3.80;;;6.40;99.90;;;;;;4951701;29;20230;-91
2020/12/28 00:56:34;;;;;;;4.40;3.60;;;6.30;99.90;;;;;;4948725;29;20205;-91
2020/12/28 00:59:05;;;;;;;4.70;3.60;;;6.30;99.90;;;;;;4932834;29;20263;-92
2020/12/28 01:01:34;;;;;;;5.00;3.53;;;6.20;99.90;;;;;;4932548;29;20273;-91
2020/12/28 01:04:10;;;;;;;6.23;3.50;;;6.10;99.90;;;;;;4933978;29;20208;-92
2020/12/28 01:06:44;;;;;;;5.87;3.30;;;6.10;99.90;;;;;;4905358;29;20209;-91
2020/12/28 01:09:15;;;;;;;4.17;3.00;;;6.00;99.90;;;;;;4912798;29;20584;-91
2020/12/28 01:11:46;;;;;;;6.23;3.70;;;6.00;99.90;;;;;;4923812;29;20260;-92
2020/12/28 01:14:18;;;;;;;7.23;2.93;;;5.90;99.90;;;;;;4929595;29;20687;-92
2020/12/28 01:16:49;;;;;;;7.70;3.03;;;5.80;99.90;;;;;;4928014;29;20197;-90
2020/12/28 01:19:22;;;;;;;7.07;3.43;;;5.80;99.90;;;;;;4925500;29;20895;-89
2020/12/28 01:21:53;;;;;;;4.93;3.70;;;5.70;99.90;;;;;;4926760;29;20232;-89
2020/12/28 01:24:23;;;;;;;8.03;3.60;;;5.70;99.90;;;;;;4931047;29;20252;-90
2020/12/28 01:26:55;;;;;;;11.27;4.60;;;5.70;99.90;;;;;;4927972;29;20225;-89
2020/12/28 01:29:26;;;;;;;6.77;4.43;;;5.70;99.90;;;;;;4927147;29;20217;-89
2020/12/28 01:31:56;;;;;;;7.93;4.43;;;5.60;99.90;;;;;;4922891;29;20264;-90
2020/12/28 01:34:28;;;;;;;7.17;5.07;;;5.60;99.90;;;;;;4909053;29;20237;-89
2020/12/28 01:36:59;;;;;;;8.80;5.57;;;5.60;99.90;;;;;;4908298;29;20213;-89
2020/12/28 01:39:29;;;;;;;7.83;4.63;;;5.60;99.90;;;;;;4906820;29;20221;-90
2020/12/28 01:47:19;;;;;;;17.07;12.17;;;5.50;99.90;;;;;;5297337;23;10002004;-96
2020/12/28 01:50:13;;;;;;;12.40;9.47;;;5.60;99.90;;;;;;5052476;23;20236;-96
2020/12/28 01:55:37;;;;;;;9.47;6.17;;;5.50;99.90;;;;;;4955888;23;20315;-96
2020/12/28 01:58:11;;;;;;;15.87;8.10;;;5.50;99.90;;;;;;4951284;29;20213;-95
2020/12/28 02:00:43;;;;;;;14.15;8.65;;;5.50;99.90;;;;;;5027980;23;20204;-94
2020/12/28 02:03:17;;;;;;;13.50;9.70;;;5.50;99.90;;;;;;4945803;28;20220;-94
2020/12/28 02:05:49;;;;;;;17.43;11.83;;;5.50;99.90;;;;;;4959933;28;20199;-93
2020/12/28 02:08:26;;;;;;;18.03;12.00;;;5.40;99.90;;;;;;4943953;29;20205;-93
2020/12/28 02:10:59;;;;;;;13.73;11.63;;;5.30;99.90;;;;;;4954405;28;20260;-94
2020/12/28 02:13:30;;;;;;;18.57;14.17;;;5.30;99.90;;;;;;4942765;29;20221;-91
2020/12/28 02:21:57;;;;;;;39.40;26.80;;;5.20;99.90;;;;;;4946477;29;20273;-90
2020/12/28 02:24:54;;;;;;;28.40;19.20;;;5.20;99.90;;;;;;4944735;29;20729;-91
2020/12/28 02:27:27;;;;;;;23.53;15.53;;;5.20;99.90;;;;;;4944689;29;20208;-93
2020/12/28 02:30:01;;;;;;;18.40;12.23;;;5.10;99.90;;;;;;4948351;29;20226;-90
2020/12/28 02:32:36;;;;;;;9.60;6.23;;;5.10;99.90;;;;;;4930685;29;20199;-90
2020/12/28 02:35:07;;;;;;;9.00;5.30;;;5.10;99.90;;;;;;4945250;29;20259;-90
2020/12/28 02:37:39;;;;;;;6.97;4.00;;;5.00;99.90;;;;;;4942983;29;20212;-91
2020/12/28 02:40:11;;;;;;;5.00;3.63;;;5.00;99.90;;;;;;4941516;29;20247;-90
2020/12/28 02:42:43;;;;;;;8.30;3.33;;;5.00;99.90;;;;;;4943205;29;20223;-90
2020/12/28 02:45:14;;;;;;;4.13;3.20;;;5.00;99.90;;;;;;4927969;29;20292;-90
2020/12/28 02:47:47;;;;;;;5.93;3.33;;;4.90;99.90;;;;;;4944943;29;20212;-91
2020/12/28 02:50:20;;;;;;;9.13;3.57;;;4.90;99.90;;;;;;4944269;29;20204;-89
2020/12/28 02:52:58;;;;;;;8.33;4.00;;;4.90;99.90;;;;;;4937611;28;20327;-90
2020/12/28 02:55:32;;;;;;;6.33;3.57;;;4.90;99.90;;;;;;4952339;29;20226;-96
2020/12/28 02:58:04;;;;;;;5.67;3.03;;;4.90;99.90;;;;;;4940869;29;20501;-96
2020/12/28 03:03:11;;;;;;;2.07;1.60;;;5.00;99.90;;;;;;5666648;23;20270;-94
2020/12/28 03:08:31;;;;;;;2.83;1.60;;;5.00;99.90;;;;;;4997875;23;20306;-96
2020/12/28 03:11:02;;;;;;;1.97;1.17;;;5.00;99.90;;;;;;4954105;29;20215;-95
2020/12/28 03:13:32;;;;;;;2.73;1.50;;;5.00;99.90;;;;;;4948506;29;20338;-96
2020/12/28 03:16:04;;;;;;;3.93;2.53;;;5.00;99.90;;;;;;4940316;29;20213;-96
2020/12/28 03:18:38;;;;;;;62.60;21.43;;;5.00;99.90;;;;;;4950095;28;20214;-92
2020/12/28 03:21:09;;;;;;;14.63;8.40;;;5.00;99.90;;;;;;4940265;29;20340;-91
2020/12/28 03:23:42;;;;;;;26.63;11.83;;;5.00;99.90;;;;;;4920006;29;20712;-93
2020/12/28 03:26:17;;;;;;;54.23;18.67;;;4.90;99.90;;;;;;4946065;29;20211;-93
2020/12/28 03:31:41;;;;;;;98.53;21.37;;;5.00;99.90;;;;;;5409230;23;20298;-96
2020/12/28 03:34:12;;;;;;;128.47;24.80;;;4.90;99.90;;;;;;4955594;28;20232;-90
2020/12/28 03:36:46;;;;;;;79.83;20.37;;;4.80;99.90;;;;;;4961518;28;20200;-94
2020/12/28 03:39:18;;;;;;;63.93;16.47;;;4.80;99.90;;;;;;4966746;28;20192;-96
2020/12/28 03:41:49;;;;;;;57.67;21.10;;;4.70;99.90;;;;;;4977417;28;20662;-96
2020/12/28 03:44:25;;;;;;;23.37;10.43;;;4.60;99.90;;;;;;4965879;28;20206;-96
2020/12/28 03:46:59;;;;;;;24.20;11.03;;;4.60;99.90;;;;;;4970331;28;20271;-92
2020/12/28 03:49:33;;;;;;;14.37;7.90;;;4.50;99.90;;;;;;4966007;28;20243;-93
2020/12/28 03:52:05;;;;;;;14.37;10.13;;;4.50;99.90;;;;;;4954743;28;20509;-93
2020/12/28 03:54:36;;;;;;;12.17;7.87;;;4.50;99.90;;;;;;4958311;28;20239;-93
2020/12/28 03:57:08;;;;;;;5.80;4.17;;;4.40;99.90;;;;;;4967038;28;20262;-91
2020/12/28 03:59:39;;;;;;;8.90;4.90;;;4.40;99.90;;;;;;4965772;28;20350;-93
2020/12/28 04:02:12;;;;;;;13.13;8.17;;;4.30;99.90;;;;;;4961768;28;20269;-92
2020/12/28 04:04:45;;;;;;;10.43;7.60;;;4.30;99.90;;;;;;4965007;28;20255;-93
2020/12/28 04:07:37;;;;;;;9.17;5.93;;;4.30;99.90;;;;;;4964223;28;20264;-93
2020/12/28 04:10:09;;;;;;;12.97;7.97;;;4.20;99.90;;;;;;4965437;29;20220;-92
2020/12/28 04:12:39;;;;;;;11.17;8.40;;;4.20;99.90;;;;;;4963809;28;20274;-92
2020/12/28 04:15:13;;;;;;;19.20;11.73;;;4.20;99.90;;;;;;4972582;28;20231;-92
2020/12/28 04:17:57;;;;;;;10.80;6.90;;;4.20;99.90;;;;;;4970218;28;20203;-92
2020/12/28 04:20:27;;;;;;;13.30;9.03;;;4.10;99.90;;;;;;4967958;28;20303;-90
2020/12/28 04:23:02;;;;;;;6.47;4.40;;;4.10;99.90;;;;;;4953047;28;20219;-93
2020/12/28 04:25:44;;;;;;;4.80;3.50;;;4.10;99.90;;;;;;4975463;28;20211;-91
2020/12/28 04:28:18;;;;;;;6.60;3.47;;;4.10;99.90;;;;;;4971736;28;20213;-92
2020/12/28 04:31:09;;;;;;;6.63;4.23;;;4.10;99.90;;;;;;4957830;28;20229;-93
2020/12/28 04:33:50;;;;;;;6.27;3.77;;;4.10;99.90;;;;;;4942643;29;20238;-91
2020/12/28 04:36:23;;;;;;;6.90;4.10;;;4.10;99.90;;;;;;4948256;29;20204;-92
2020/12/28 04:39:01;;;;;;;5.50;3.73;;;4.00;99.90;;;;;;4944585;29;20222;-92
2020/12/28 04:41:34;;;;;;;6.33;4.47;;;3.90;99.90;;;;;;4948132;29;20220;-91
2020/12/28 04:44:08;;;;;;;10.03;5.80;;;3.90;99.90;;;;;;4948843;29;20205;-93
2020/12/28 04:46:42;;;;;;;13.53;7.07;;;3.80;99.90;;;;;;4957245;29;20212;-92
2020/12/28 04:49:15;;;;;;;14.53;8.47;;;3.80;99.90;;;;;;4951942;29;20201;-94
2020/12/28 04:51:46;;;;;;;15.07;8.90;;;3.70;99.90;;;;;;4949596;29;20280;-93
2020/12/28 04:54:16;;;;;;;9.97;6.40;;;3.70;99.90;;;;;;4946401;29;20232;-91
2020/12/28 04:56:48;;;;;;;7.37;5.33;;;3.60;99.90;;;;;;4941343;29;20220;-93
2020/12/28 04:59:20;;;;;;;6.13;3.83;;;3.60;99.90;;;;;;4948552;28;20205;-92
2020/12/28 05:04:28;;;;;;;4.00;2.87;;;3.50;99.90;;;;;;5043650;23;20244;-96
2020/12/28 05:07:12;;;;;;;3.20;2.60;;;3.50;99.90;;;;;;4951822;29;20201;-92
2020/12/28 05:09:47;;;;;;;4.97;2.50;;;3.50;99.90;;;;;;4945000;29;20205;-93
2020/12/28 05:12:21;;;;;;;3.80;2.57;;;3.40;99.90;;;;;;4945380;29;20208;-93
2020/12/28 05:15:03;;;;;;;8.87;3.20;;;3.40;99.90;;;;;;4944443;29;20232;-93
2020/12/28 05:17:37;;;;;;;4.73;2.80;;;3.40;99.90;;;;;;4944387;29;20208;-96
2020/12/28 05:20:18;;;;;;;3.73;2.80;;;3.40;99.90;;;;;;4947995;29;20207;-93
2020/12/28 05:22:54;;;;;;;3.97;2.63;;;3.30;99.90;;;;;;4924859;29;20216;-94
2020/12/28 05:25:26;;;;;;;4.87;3.20;;;3.30;99.90;;;;;;4943626;29;20208;-93
2020/12/28 05:28:05;;;;;;;6.80;3.07;;;3.30;99.90;;;;;;4941749;29;20216;-92
2020/12/28 05:30:37;;;;;;;3.90;2.83;;;3.20;99.90;;;;;;4935907;29;20212;-92
2020/12/28 05:33:11;;;;;;;4.20;3.10;;;3.20;99.90;;;;;;4939806;29;20228;-92
2020/12/28 05:35:42;;;;;;;6.57;2.93;;;3.20;99.90;;;;;;4940855;29;20221;-92
2020/12/28 05:38:16;;;;;;;4.20;2.93;;;3.20;99.90;;;;;;4939866;29;20200;-93
2020/12/28 05:40:48;;;;;;;5.40;3.10;;;3.10;99.90;;;;;;4941628;29;20205;-93
2020/12/28 05:43:47;;;;;;;3.80;3.00;;;3.10;99.90;;;;;;4939755;28;20675;-95
2020/12/28 05:46:24;;;;;;;4.63;2.77;;;3.10;99.90;;;;;;4941253;29;20226;-92
2020/12/28 05:49:13;;;;;;;5.60;3.03;;;3.10;99.90;;;;;;4941562;29;20205;-96
2020/12/28 05:52:38;;;;;;;5.23;3.37;;;3.10;99.90;;;;;;5229445;23;20362;-96
2020/12/28 05:55:24;;;;;;;5.03;3.57;;;3.00;99.90;;;;;;4956008;28;20230;-96
2020/12/28 05:57:57;;;;;;;7.03;3.90;;;3.00;99.90;;;;;;4955602;29;20239;-96
2020/12/28 06:00:29;;;;;;;6.97;4.40;;;3.00;99.90;;;;;;4957446;28;20211;-95
2020/12/28 06:03:25;;;;;;;5.87;4.20;;;2.90;99.90;;;;;;4953717;29;20203;-96
2020/12/28 06:05:59;;;;;;;9.17;5.70;;;2.90;99.90;;;;;;4949029;29;20215;-94
2020/12/28 06:08:31;;;;;;;15.37;9.13;;;2.90;99.90;;;;;;4978924;28;20232;-92
2020/12/28 06:11:06;;;;;;;19.50;11.43;;;2.90;99.90;;;;;;4952420;29;20212;-92
2020/12/28 06:13:36;;;;;;;18.50;12.27;;;2.80;99.90;;;;;;4952619;29;20605;-94
2020/12/28 06:16:10;;;;;;;17.80;11.03;;;2.80;99.90;;;;;;4950738;28;20223;-95
2020/12/28 06:18:41;;;;;;;20.03;11.47;;;2.80;99.90;;;;;;4948297;28;20234;-96
2020/12/28 06:21:19;;;;;;;18.63;11.77;;;2.80;99.90;;;;;;4949102;28;20215;-93
2020/12/28 06:23:57;;;;;;;20.53;11.37;;;2.80;99.90;;;;;;4948102;29;20429;-94
2020/12/28 06:38:07;;;;;;;9.33;5.27;;;2.80;99.90;;;;;;4948309;28;20216;-93
2020/12/28 06:43:48;;;;;;;4.43;2.50;;;2.90;99.90;;;;;;5203596;23;20238;-92
2020/12/28 06:46:24;;;;;;;3.80;2.20;;;3.00;99.90;;;;;;4957512;28;20338;-93
2020/12/28 06:48:58;;;;;;;3.07;2.00;;;3.00;99.90;;;;;;4957216;29;20211;-92
2020/12/28 06:51:33;;;;;;;2.50;1.60;;;3.00;99.90;;;;;;4952383;29;20208;-94
2020/12/28 06:54:04;;;;;;;2.23;1.43;;;3.00;99.90;;;;;;4954696;29;20297;-96
2020/12/28 06:56:40;;;;;;;2.00;1.57;;;3.00;99.90;;;;;;4950246;29;20222;-96
2020/12/28 06:59:22;;;;;;;2.83;1.20;;;3.10;99.90;;;;;;4949278;29;20210;-94
2020/12/28 07:02:03;;;;;;;2.23;1.40;;;3.00;99.90;;;;;;4942793;29;20205;-94
2020/12/28 07:04:41;;;;;;;1.97;1.47;;;3.00;99.90;;;;;;4947201;29;20204;-94
2020/12/28 07:07:15;;;;;;;1.83;1.10;;;3.00;99.90;;;;;;4942677;29;20240;-94
2020/12/28 07:09:51;;;;;;;2.47;1.47;;;3.00;99.90;;;;;;4941739;29;20197;-94
2020/12/28 07:12:22;;;;;;;1.80;1.30;;;3.00;99.90;;;;;;4945023;28;20200;-91
2020/12/28 07:15:05;;;;;;;3.40;1.53;;;2.90;99.90;;;;;;4943680;29;20224;-91
2020/12/28 07:17:36;;;;;;;2.00;1.30;;;2.90;99.90;;;;;;4941855;29;20223;-91
2020/12/28 07:20:11;;;;;;;1.87;1.10;;;2.90;99.90;;;;;;4940221;29;20239;-91
2020/12/28 07:22:46;;;;;;;2.10;1.27;;;2.80;99.90;;;;;;4945024;29;20200;-91
2020/12/28 07:25:17;;;;;;;1.77;1.27;;;2.80;99.90;;;;;;4937241;29;20197;-91
2020/12/28 07:27:51;;;;;;;1.57;1.20;;;2.80;99.90;;;;;;4937508;29;20264;-92
2020/12/28 07:30:23;;;;;;;4.30;1.67;;;2.80;99.90;;;;;;4938946;29;20252;-92
2020/12/28 07:32:58;;;;;;;3.37;1.57;;;2.70;99.90;;;;;;4931872;28;20279;-93
2020/12/28 07:35:33;;;;;;;6.67;2.47;;;2.60;99.90;;;;;;4934561;29;20310;-94
2020/12/28 07:38:07;;;;;;;5.57;2.80;;;2.60;99.90;;;;;;4935683;29;20196;-93
2020/12/28 07:40:41;;;;;;;6.67;3.27;;;2.60;99.90;;;;;;4935537;29;20219;-93
2020/12/28 07:43:15;;;;;;;4.67;2.80;;;2.50;99.90;;;;;;4934533;29;20220;-92
2020/12/28 07:45:45;;;;;;;5.43;2.97;;;2.50;99.90;;;;;;4937509;29;20231;-93
2020/12/28 07:48:21;;;;;;;6.90;3.00;;;2.50;99.90;;;;;;4933769;29;20213;-92
2020/12/28 07:50:55;;;;;;;9.37;3.63;;;2.50;99.90;;;;;;4928673;29;20204;-92
2020/12/28 07:53:40;;;;;;;8.43;3.80;;;2.40;99.90;;;;;;4935594;29;20271;-93
2020/12/28 07:56:24;;;;;;;7.20;3.63;;;2.30;99.90;;;;;;4937200;29;20216;-93
2020/12/28 07:59:09;;;;;;;7.43;4.00;;;2.30;99.90;;;;;;4929141;29;20213;-93
2020/12/28 08:01:44;;;;;;;9.90;4.90;;;2.20;99.90;;;;;;4926518;29;20204;-92
2020/12/28 08:04:20;;;;;;;8.27;4.53;;;2.10;99.90;;;;;;4940765;29;20207;-93
2020/12/28 08:06:57;;;;;;;7.50;3.53;;;2.10;99.90;;;;;;4951709;28;20207;-93
2020/12/28 08:09:30;;;;;;;6.03;3.67;;;2.00;99.90;;;;;;4945170;29;20215;-93
2020/12/28 08:12:02;;;;;;;6.63;3.00;;;2.00;99.90;;;;;;4937978;29;20253;-94
2020/12/28 08:14:33;;;;;;;5.23;3.00;;;2.00;99.90;;;;;;4930499;29;20222;-94
2020/12/28 08:17:14;;;;;;;4.13;2.70;;;2.00;99.90;;;;;;4931247;29;20333;-92
2020/12/28 08:19:46;;;;;;;2.50;1.60;;;1.90;99.90;;;;;;4945907;29;20230;-93
2020/12/28 08:22:31;;;;;;;4.10;1.70;;;1.90;99.90;;;;;;4937736;29;20220;-94
2020/12/28 08:25:03;;;;;;;4.47;2.30;;;1.80;99.90;;;;;;4939021;29;20651;-95
2020/12/28 08:27:34;;;;;;;4.13;2.23;;;1.80;99.90;;;;;;4937843;29;20215;-94
2020/12/28 08:30:11;;;;;;;4.83;2.33;;;1.70;99.90;;;;;;4935801;29;20588;-94
2020/12/28 08:32:42;;;;;;;3.90;2.60;;;1.70;99.90;;;;;;4934412;29;21947;-93
2020/12/28 08:35:13;;;;;;;3.70;2.23;;;1.70;99.90;;;;;;4936112;29;20229;-93
2020/12/28 08:37:51;;;;;;;4.53;2.80;;;1.60;99.90;;;;;;4941392;29;20322;-94
2020/12/28 08:40:24;;;;;;;4.63;2.70;;;1.60;99.90;;;;;;4940295;29;20223;-94
2020/12/28 08:42:59;;;;;;;5.93;2.53;;;1.60;99.90;;;;;;4937100;29;20345;-94
2020/12/28 08:45:30;;;;;;;5.20;2.10;;;1.70;99.90;;;;;;4944335;29;20207;-93
2020/12/28 08:48:04;;;;;;;3.93;2.30;;;1.70;99.90;;;;;;4938372;29;20209;-93
2020/12/28 08:50:37;;;;;;;2.53;1.87;;;1.70;99.90;;;;;;4934222;29;20215;-92
2020/12/28 08:53:17;;;;;;;4.73;2.10;;;1.70;99.90;;;;;;4933964;29;20231;-93
2020/12/28 08:55:58;;;;;;;2.43;1.87;;;1.70;99.90;;;;;;4948929;29;20297;-94
2020/12/28 08:58:31;;;;;;;2.80;2.10;;;1.70;99.90;;;;;;4949585;29;20212;-93
2020/12/28 09:01:04;;;;;;;3.83;2.27;;;1.70;99.90;;;;;;4950618;29;20292;-93
2020/12/28 09:03:37;;;;;;;2.33;2.03;;;1.70;99.90;;;;;;4951826;29;20239;-93
2020/12/28 09:06:17;;;;;;;3.33;2.23;;;1.70;99.90;;;;;;4948891;29;20226;-94
2020/12/28 09:08:49;;;;;;;3.87;2.00;;;1.70;99.90;;;;;;4932826;28;20249;-93
2020/12/28 09:11:20;;;;;;;3.37;2.50;;;1.60;99.90;;;;;;4941944;29;20680;-94
2020/12/28 09:13:53;;;;;;;3.83;2.40;;;1.60;99.90;;;;;;4951198;29;20263;-93
2020/12/28 09:16:25;;;;;;;3.17;2.40;;;1.60;99.90;;;;;;4935459;28;20328;-93
2020/12/28 09:18:57;;;;;;;2.90;2.17;;;1.70;99.90;;;;;;4933914;29;20238;-94
2020/12/28 09:21:30;;;;;;;3.30;2.50;;;1.70;99.90;;;;;;4939092;29;20409;-94
2020/12/28 09:24:02;;;;;;;3.57;2.23;;;1.70;99.90;;;;;;4942008;29;20200;-92
2020/12/28 09:26:43;;;;;;;4.00;2.10;;;1.70;99.90;;;;;;4938012;29;20223;-92
2020/12/28 09:29:16;;;;;;;2.50;1.90;;;1.70;99.90;;;;;;4937509;29;20291;-93
2020/12/28 09:31:46;;;;;;;4.83;2.30;;;1.70;99.90;;;;;;4935268;29;20197;-93
2020/12/28 09:34:17;;;;;;;2.33;2.00;;;1.70;99.90;;;;;;4941542;29;20228;-93
2020/12/28 09:36:51;;;;;;;4.30;2.20;;;1.70;99.90;;;;;;4938932;29;20204;-93
2020/12/28 09:39:24;;;;;;;5.73;2.00;;;1.70;99.90;;;;;;4944050;28;20229;-93
2020/12/28 09:41:56;;;;;;;3.10;1.97;;;1.70;99.90;;;;;;4931994;29;20544;-93
2020/12/28 09:44:27;;;;;;;3.30;1.83;;;1.70;99.90;;;;;;4934780;29;20220;-92
2020/12/28 09:47:00;;;;;;;2.67;2.00;;;1.70;99.90;;;;;;4937911;29;20214;-93
2020/12/28 09:49:31;;;;;;;3.33;2.10;;;1.70;99.90;;;;;;4933691;29;20208;-91
2020/12/28 09:52:03;;;;;;;6.10;1.77;;;1.60;99.90;;;;;;4937953;29;20197;-93
2020/12/28 09:54:42;;;;;;;3.87;1.90;;;1.60;99.90;;;;;;4936895;29;20239;-93
2020/12/28 09:57:14;;;;;;;3.67;2.03;;;1.60;99.90;;;;;;4944869;29;20208;-92
2020/12/28 09:59:45;;;;;;;3.37;2.27;;;1.60;99.90;;;;;;4937826;29;20213;-92
2020/12/28 10:02:17;;;;;;;2.90;1.80;;;1.60;99.90;;;;;;4930587;29;20216;-92
2020/12/28 10:04:48;;;;;;;3.40;1.77;;;1.60;99.90;;;;;;4949540;28;20214;-92
2020/12/28 10:07:18;;;;;;;2.87;1.87;;;1.60;99.90;;;;;;4934267;29;20201;-92
2020/12/28 10:09:53;;;;;;;3.07;2.03;;;1.60;99.90;;;;;;4934165;29;20204;-92
2020/12/28 10:12:24;;;;;;;1.53;1.43;;;1.50;99.90;;;;;;4935462;29;20275;-92
2020/12/28 10:14:57;;;;;;;2.43;1.30;;;1.40;99.90;;;;;;4938010;29;20263;-92
2020/12/28 10:17:28;;;;;;;2.33;1.40;;;1.50;99.90;;;;;;4933771;29;20244;-92
2020/12/28 10:19:59;;;;;;;2.60;1.60;;;1.40;99.90;;;;;;4940349;29;20211;-92
2020/12/28 10:22:49;;;;;;;4.33;1.50;;;1.40;99.90;;;;;;4930977;29;20204;-91
2020/12/28 10:25:21;;;;;;;2.57;1.50;;;1.40;99.90;;;;;;4937855;29;20244;-91
2020/12/28 10:27:52;;;;;;;1.90;1.43;;;1.40;99.90;;;;;;4934357;29;20566;-92
2020/12/28 10:30:23;;;;;;;2.97;1.50;;;1.40;99.90;;;;;;4937946;29;20213;-93
2020/12/28 10:32:54;;;;;;;1.27;1.17;;;1.40;99.90;;;;;;4940751;29;20219;-92
2020/12/28 10:35:25;;;;;;;3.40;1.43;;;1.30;99.90;;;;;;4940201;29;20228;-92
2020/12/28 10:38:03;;;;;;;2.70;1.20;;;1.30;99.90;;;;;;4933804;29;20201;-91
2020/12/28 10:40:36;;;;;;;2.73;1.30;;;1.30;99.90;;;;;;4947325;29;20211;-92
2020/12/28 10:43:12;;;;;;;2.17;1.20;;;1.40;99.90;;;;;;4939676;28;20221;-92
2020/12/28 10:45:46;;;;;;;2.80;1.57;;;1.30;99.90;;;;;;4938886;28;20188;-91
2020/12/28 10:48:16;;;;;;;2.77;1.27;;;1.40;99.90;;;;;;4940712;29;20201;-92
2020/12/28 10:50:49;;;;;;;1.37;1.20;;;1.40;99.90;;;;;;4949383;29;20611;-92
2020/12/28 10:53:20;;;;;;;1.80;1.10;;;1.40;99.90;;;;;;4941307;29;20224;-92
2020/12/28 10:55:51;;;;;;;2.00;1.20;;;1.40;99.90;;;;;;4950788;29;20224;-91
2020/12/28 10:58:22;;;;;;;2.73;1.40;;;1.30;99.90;;;;;;4937052;29;20192;-92
2020/12/28 11:00:55;;;;;;;3.17;1.37;;;1.30;99.90;;;;;;4938906;29;20204;-91
2020/12/28 11:03:29;;;;;;;4.23;1.93;;;1.30;99.90;;;;;;4945615;29;20212;-91
2020/12/28 11:06:03;;;;;;;1.43;1.30;;;1.30;99.90;;;;;;4942784;28;20204;-91
2020/12/28 11:08:34;;;;;;;2.37;1.60;;;1.20;99.90;;;;;;4948045;29;20209;-93
2020/12/28 11:11:06;;;;;;;2.70;1.53;;;1.20;99.90;;;;;;4935740;29;20197;-92
2020/12/28 11:13:38;;;;;;;3.40;1.50;;;1.20;99.90;;;;;;4936112;29;20211;-93
2020/12/28 11:16:12;;;;;;;3.33;1.73;;;1.10;99.90;;;;;;4948692;29;20226;-91
2020/12/28 11:18:44;;;;;;;1.53;1.27;;;1.10;99.90;;;;;;4942172;29;20216;-92
2020/12/28 11:21:15;;;;;;;3.00;1.60;;;1.10;99.90;;;;;;4933239;29;20213;-92
2020/12/28 11:23:59;;;;;;;2.67;1.50;;;1.00;99.90;;;;;;4939982;29;20208;-93
2020/12/28 11:26:32;;;;;;;3.67;1.70;;;1.00;99.90;;;;;;4943845;29;20203;-93
2020/12/28 11:29:05;;;;;;;2.83;1.60;;;1.00;99.90;;;;;;4932054;29;20220;-92
2020/12/28 11:31:35;;;;;;;3.00;1.73;;;1.00;99.90;;;;;;4933950;29;20200;-94
2020/12/28 11:34:06;;;;;;;2.60;1.50;;;1.00;99.90;;;;;;4936115;29;20264;-92
2020/12/28 11:36:38;;;;;;;1.93;1.53;;;1.00;99.90;;;;;;4937190;29;20295;-92
2020/12/28 11:39:10;;;;;;;2.60;1.37;;;1.00;99.90;;;;;;4935506;29;20220;-92
2020/12/28 11:41:44;;;;;;;2.93;1.50;;;1.00;99.90;;;;;;4930896;29;20212;-93
2020/12/28 11:44:15;;;;;;;1.37;1.27;;;1.00;99.90;;;;;;4939459;29;20219;-92
2020/12/28 11:46:48;;;;;;;2.10;1.50;;;1.00;99.90;;;;;;4936618;29;20526;-92
2020/12/28 11:49:19;;;;;;;2.43;1.37;;;0.90;99.90;;;;;;4933000;29;20633;-92
2020/12/28 11:51:53;;;;;;;2.37;1.40;;;0.90;99.90;;;;;;4938221;29;20468;-91
2020/12/28 11:54:25;;;;;;;2.47;1.50;;;0.90;99.90;;;;;;4935097;29;20223;-92
2020/12/28 11:56:58;;;;;;;3.10;1.60;;;0.90;99.90;;;;;;4930078;29;20284;-91
2020/12/28 11:59:31;;;;;;;2.57;1.70;;;0.90;99.90;;;;;;4933635;29;20232;-92
2020/12/28 12:02:03;;;;;;;2.20;1.50;;;0.90;99.90;;;;;;4933725;29;20208;-93
2020/12/28 12:04:49;;;;;;;1.13;1.03;;;0.90;99.90;;;;;;4935485;29;20205;-93
2020/12/28 12:07:22;;;;;;;2.13;1.40;;;0.90;99.90;;;;;;4939143;29;20273;-93
2020/12/28 12:09:56;;;;;;;2.40;1.33;;;0.90;99.90;;;;;;4945120;29;20238;-92
2020/12/28 12:12:28;;;;;;;2.50;1.40;;;0.90;99.90;;;;;;4938347;29;20204;-93
2020/12/28 12:15:00;;;;;;;2.80;1.47;;;0.80;99.90;;;;;;4937297;29;20253;-91
2020/12/28 12:17:31;;;;;;;1.83;1.23;;;0.80;99.90;;;;;;4943367;29;20220;-92
2020/12/28 12:20:02;;;;;;;1.80;1.33;;;0.80;99.90;;;;;;4936245;29;20222;-93
2020/12/28 12:22:32;;;;;;;1.93;1.23;;;0.80;99.90;;;;;;4932684;29;20272;-92
2020/12/28 12:25:03;;;;;;;2.30;1.43;;;0.70;99.90;;;;;;4942235;29;20209;-92
2020/12/28 12:27:43;;;;;;;1.90;1.20;;;0.80;99.90;;;;;;4945018;29;20283;-92
2020/12/28 12:30:14;;;;;;;1.87;1.10;;;0.80;99.90;;;;;;4934258;29;20221;-92
2020/12/28 12:32:47;;;;;;;3.30;1.23;;;0.80;99.90;;;;;;4933716;29;20207;-90
2020/12/28 12:35:17;;;;;;;2.43;1.20;;;0.80;99.90;;;;;;4945703;29;20307;-92
2020/12/28 12:37:48;;;;;;;1.83;1.10;;;0.80;99.90;;;;;;4933981;29;20203;-91
2020/12/28 12:40:19;;;;;;;2.80;1.20;;;0.80;99.90;;;;;;4936815;29;20205;-93
2020/12/28 12:42:51;;;;;;;1.53;1.10;;;0.80;99.90;;;;;;4933300;29;20233;-92
2020/12/28 12:45:22;;;;;;;1.60;1.13;;;0.80;99.90;;;;;;4938305;29;20609;-92
2020/12/28 12:47:53;;;;;;;1.07;0.97;;;0.70;99.90;;;;;;4939614;29;20201;-92
2020/12/28 12:50:24;;;;;;;1.70;1.17;;;0.70;99.90;;;;;;4939925;29;20208;-92
2020/12/28 12:53:00;;;;;;;1.57;1.20;;;0.70;99.90;;;;;;4936956;29;20248;-92
2020/12/28 12:55:32;;;;;;;2.90;1.10;;;0.80;99.90;;;;;;4940602;29;20231;-91
2020/12/28 12:58:09;;;;;;;1.93;1.00;;;0.70;99.90;;;;;;4934786;29;20204;-91
2020/12/28 13:00:39;;;;;;;1.43;0.90;;;0.70;99.90;;;;;;4943305;29;20615;-91
2020/12/28 13:03:12;;;;;;;1.90;0.90;;;0.70;99.90;;;;;;4936282;29;20209;-90
2020/12/28 13:05:43;;;;;;;1.53;1.20;;;0.70;99.90;;;;;;4940936;29;20200;-91
2020/12/28 13:08:18;;;;;;;0.90;0.90;;;0.70;99.90;;;;;;4934811;29;20700;-89
2020/12/28 13:10:50;;;;;;;1.63;1.10;;;0.70;99.90;;;;;;4936987;29;20219;-92
2020/12/28 13:13:22;;;;;;;0.93;0.80;;;0.70;99.90;;;;;;4944604;28;20216;-92
2020/12/28 13:15:53;;;;;;;1.23;0.80;;;0.70;99.90;;;;;;4934572;29;20330;-92
2020/12/28 13:18:25;;;;;;;0.80;0.77;;;0.70;99.90;;;;;;4936113;29;20239;-93
2020/12/28 13:20:56;;;;;;;1.57;0.90;;;0.70;99.90;;;;;;4938734;29;20227;-92
2020/12/28 13:23:27;;;;;;;1.33;0.80;;;0.70;99.90;;;;;;4938599;29;20246;-92
2020/12/28 13:26:00;;;;;;;0.73;0.70;;;0.70;99.90;;;;;;4941094;29;20278;-93
2020/12/28 13:28:35;;;;;;;1.70;0.93;;;0.70;99.90;;;;;;4938332;29;20630;-92
2020/12/28 13:31:13;;;;;;;1.30;0.70;;;0.70;99.90;;;;;;4939541;29;20203;-92
2020/12/28 13:33:45;;;;;;;1.80;1.07;;;0.70;99.90;;;;;;4934438;29;20238;-92
2020/12/28 13:36:16;;;;;;;1.40;0.80;;;0.70;99.90;;;;;;4940873;29;20614;-92
2020/12/28 13:38:50;;;;;;;2.60;1.00;;;0.60;99.90;;;;;;4939116;29;20272;-93
2020/12/28 13:41:21;;;;;;;0.60;0.60;;;0.70;99.90;;;;;;4939844;29;20205;-92
2020/12/28 13:43:53;;;;;;;0.70;0.70;;;0.70;99.90;;;;;;4936558;28;20215;-90
2020/12/28 13:46:24;;;;;;;1.33;0.80;;;0.70;99.90;;;;;;4937541;29;20216;-92
2020/12/28 13:48:55;;;;;;;0.97;0.73;;;0.70;99.90;;;;;;4932830;29;20245;-92
2020/12/28 13:51:27;;;;;;;0.77;0.60;;;0.70;99.90;;;;;;4939339;29;20214;-92
2020/12/28 13:54:00;;;;;;;1.60;0.73;;;0.70;99.90;;;;;;4933435;29;20220;-92
2020/12/28 13:56:33;;;;;;;0.90;0.77;;;0.70;99.90;;;;;;4934792;29;20241;-92
2020/12/28 13:59:05;;;;;;;1.33;0.80;;;0.70;99.90;;;;;;4936993;29;20682;-92
2020/12/28 14:01:38;;;;;;;1.23;0.70;;;0.70;99.90;;;;;;4938224;28;20311;-92
2020/12/28 14:04:09;;;;;;;0.60;0.60;;;0.60;99.90;;;;;;4932912;29;20334;-92
2020/12/28 14:06:41;;;;;;;0.60;0.50;;;0.60;99.90;;;;;;4933517;29;20240;-92
2020/12/28 14:09:15;;;;;;;2.80;0.70;;;0.60;99.90;;;;;;4931710;29;20689;-93